sensor_id;sensor_type;location;lat;lon;timestamp;temperature;humidity
53272;DHT22;39160;48.580;7.756;2023-06-10T00:04:45;24.50;65.00
53272;DHT22;39160;48.580;7.756;2023-06-10T00:09:37;24.50;65.20
53272;DHT22;39160;48.580;7.756;2023-06-10T00:14:28;24.30;65.60
53272;DHT22;39160;48.580;7.756;2023-06-10T00:19:18;24.30;65.70
53272;DHT22;39160;48.580;7.756;2023-06-10T00:24:09;24.20;65.80
53272;DHT22;39160;48.580;7.756;2023-06-10T00:29:02;24.30;65.70
53272;DHT22;39160;48.580;7.756;2023-06-10T00:33:53;24.30;65.70
53272;DHT22;39160;48.580;7.756;2023-06-10T00:38:43;24.20;65.90
53272;DHT22;39160;48.580;7.756;2023-06-10T00:43:34;24.20;66.10
53272;DHT22;39160;48.580;7.756;2023-06-10T00:48:25;24.20;66.10
53272;DHT22;39160;48.580;7.756;2023-06-10T00:53:16;24.10;66.50
53272;DHT22;39160;48.580;7.756;2023-06-10T00:58:08;24.00;66.60
53272;DHT22;39160;48.580;7.756;2023-06-10T01:02:59;23.90;66.90
53272;DHT22;39160;48.580;7.756;2023-06-10T01:08:01;23.80;67.10
53272;DHT22;39160;48.580;7.756;2023-06-10T01:22:48;23.70;67.70
53272;DHT22;39160;48.580;7.756;2023-06-10T01:27:40;23.60;67.60
53272;DHT22;39160;48.580;7.756;2023-06-10T01:32:48;23.50;67.80
53272;DHT22;39160;48.580;7.756;2023-06-10T01:37:40;23.40;68.20
53272;DHT22;39160;48.580;7.756;2023-06-10T01:42:33;23.30;68.50
53272;DHT22;39160;48.580;7.756;2023-06-10T01:47:24;23.20;68.60
53272;DHT22;39160;48.580;7.756;2023-06-10T01:52:15;23.10;68.80
53272;DHT22;39160;48.580;7.756;2023-06-10T01:57:05;23.30;68.60
53272;DHT22;39160;48.580;7.756;2023-06-10T02:01:56;23.20;68.90
53272;DHT22;39160;48.580;7.756;2023-06-10T02:06:47;23.10;69.10
53272;DHT22;39160;48.580;7.756;2023-06-10T02:11:38;23.20;69.10
53272;DHT22;39160;48.580;7.756;2023-06-10T02:16:29;22.90;69.50
53272;DHT22;39160;48.580;7.756;2023-06-10T02:21:20;22.80;69.80
53272;DHT22;39160;48.580;7.756;2023-06-10T02:26:10;22.70;70.10
53272;DHT22;39160;48.580;7.756;2023-06-10T02:31:01;22.70;70.00
53272;DHT22;39160;48.580;7.756;2023-06-10T02:35:51;22.70;70.10
53272;DHT22;39160;48.580;7.756;2023-06-10T02:40:42;22.70;70.10
53272;DHT22;39160;48.580;7.756;2023-06-10T02:45:33;22.70;70.20
53272;DHT22;39160;48.580;7.756;2023-06-10T02:50:23;22.60;70.50
53272;DHT22;39160;48.580;7.756;2023-06-10T02:55:14;22.40;70.90
53272;DHT22;39160;48.580;7.756;2023-06-10T03:00:06;22.40;70.90
53272;DHT22;39160;48.580;7.756;2023-06-10T03:05:00;22.40;70.90
53272;DHT22;39160;48.580;7.756;2023-06-10T03:09:51;22.40;70.80
53272;DHT22;39160;48.580;7.756;2023-06-10T03:14:42;22.10;71.30
53272;DHT22;39160;48.580;7.756;2023-06-10T03:19:32;22.20;71.30
53272;DHT22;39160;48.580;7.756;2023-06-10T03:24:23;22.00;71.80
53272;DHT22;39160;48.580;7.756;2023-06-10T03:29:14;22.00;72.00
53272;DHT22;39160;48.580;7.756;2023-06-10T03:34:05;22.00;72.00
53272;DHT22;39160;48.580;7.756;2023-06-10T03:38:55;22.10;71.90
53272;DHT22;39160;48.580;7.756;2023-06-10T03:43:47;22.10;71.80
53272;DHT22;39160;48.580;7.756;2023-06-10T03:48:37;22.00;72.20
53272;DHT22;39160;48.580;7.756;2023-06-10T03:53:29;21.70;72.50
53272;DHT22;39160;48.580;7.756;2023-06-10T03:58:19;21.70;72.70
53272;DHT22;39160;48.580;7.756;2023-06-10T04:03:10;21.80;72.80
53272;DHT22;39160;48.580;7.756;2023-06-10T04:08:04;21.80;72.80
53272;DHT22;39160;48.580;7.756;2023-06-10T04:12:55;21.90;72.80
53272;DHT22;39160;48.580;7.756;2023-06-10T04:17:46;22.00;72.50
53272;DHT22;39160;48.580;7.756;2023-06-10T04:22:37;22.00;72.80
53272;DHT22;39160;48.580;7.756;2023-06-10T04:27:27;21.70;73.40
53272;DHT22;39160;48.580;7.756;2023-06-10T04:32:18;21.70;73.60
53272;DHT22;39160;48.580;7.756;2023-06-10T04:37:09;21.60;73.80
53272;DHT22;39160;48.580;7.756;2023-06-10T04:41:59;21.60;74.00
53272;DHT22;39160;48.580;7.756;2023-06-10T04:46:50;21.80;73.80
53272;DHT22;39160;48.580;7.756;2023-06-10T04:51:41;21.80;73.80
53272;DHT22;39160;48.580;7.756;2023-06-10T04:56:32;21.80;74.00
53272;DHT22;39160;48.580;7.756;2023-06-10T05:01:23;21.80;74.00
53272;DHT22;39160;48.580;7.756;2023-06-10T05:06:13;21.90;73.90
53272;DHT22;39160;48.580;7.756;2023-06-10T05:11:04;22.00;73.90
53272;DHT22;39160;48.580;7.756;2023-06-10T05:15:55;21.80;74.10
53272;DHT22;39160;48.580;7.756;2023-06-10T05:20:45;21.90;74.20
53272;DHT22;39160;48.580;7.756;2023-06-10T05:25:37;21.90;74.00
53272;DHT22;39160;48.580;7.756;2023-06-10T05:30:27;22.00;74.20
53272;DHT22;39160;48.580;7.756;2023-06-10T05:35:18;22.00;74.20
53272;DHT22;39160;48.580;7.756;2023-06-10T05:40:09;22.10;74.00
53272;DHT22;39160;48.580;7.756;2023-06-10T05:45:00;22.10;74.00
53272;DHT22;39160;48.580;7.756;2023-06-10T05:49:51;22.00;74.20
53272;DHT22;39160;48.580;7.756;2023-06-10T05:54:42;22.00;74.40
53272;DHT22;39160;48.580;7.756;2023-06-10T05:59:32;21.90;74.70
53272;DHT22;39160;48.580;7.756;2023-06-10T06:04:23;22.00;74.50
53272;DHT22;39160;48.580;7.756;2023-06-10T06:09:13;22.10;74.50
53272;DHT22;39160;48.580;7.756;2023-06-10T06:14:04;22.20;74.30
53272;DHT22;39160;48.580;7.756;2023-06-10T06:18:55;22.20;75.00
53272;DHT22;39160;48.580;7.756;2023-06-10T06:23:45;22.20;74.50
53272;DHT22;39160;48.580;7.756;2023-06-10T06:28:36;22.20;74.70
53272;DHT22;39160;48.580;7.756;2023-06-10T06:33:26;22.20;74.70
53272;DHT22;39160;48.580;7.756;2023-06-10T06:38:17;22.30;74.70
53272;DHT22;39160;48.580;7.756;2023-06-10T06:43:08;22.40;74.60
53272;DHT22;39160;48.580;7.756;2023-06-10T06:47:59;22.70;74.10
53272;DHT22;39160;48.580;7.756;2023-06-10T06:52:49;22.50;74.50
53272;DHT22;39160;48.580;7.756;2023-06-10T06:57:40;22.60;74.60
53272;DHT22;39160;48.580;7.756;2023-06-10T07:02:31;22.80;74.20
53272;DHT22;39160;48.580;7.756;2023-06-10T07:07:23;22.90;74.30
53272;DHT22;39160;48.580;7.756;2023-06-10T07:12:14;22.70;74.70
53272;DHT22;39160;48.580;7.756;2023-06-10T07:17:04;22.90;74.60
53272;DHT22;39160;48.580;7.756;2023-06-10T07:21:55;23.10;75.00
53272;DHT22;39160;48.580;7.756;2023-06-10T07:26:46;23.20;74.20
53272;DHT22;39160;48.580;7.756;2023-06-10T07:31:36;23.30;74.00
53272;DHT22;39160;48.580;7.756;2023-06-10T07:36:27;23.40;74.10
53272;DHT22;39160;48.580;7.756;2023-06-10T07:41:19;23.60;73.90
53272;DHT22;39160;48.580;7.756;2023-06-10T07:46:10;23.90;73.60
53272;DHT22;39160;48.580;7.756;2023-06-10T07:51:01;24.00;73.50
53272;DHT22;39160;48.580;7.756;2023-06-10T07:55:51;24.00;73.50
53272;DHT22;39160;48.580;7.756;2023-06-10T08:00:42;24.00;73.60
53272;DHT22;39160;48.580;7.756;2023-06-10T08:05:33;24.10;73.50
53272;DHT22;39160;48.580;7.756;2023-06-10T08:10:23;24.30;73.30
53272;DHT22;39160;48.580;7.756;2023-06-10T08:15:14;24.20;73.50
53272;DHT22;39160;48.580;7.756;2023-06-10T08:20:06;24.10;73.70
53272;DHT22;39160;48.580;7.756;2023-06-10T08:24:56;24.30;73.40
53272;DHT22;39160;48.580;7.756;2023-06-10T08:29:47;24.50;73.40
53272;DHT22;39160;48.580;7.756;2023-06-10T08:34:38;24.60;73.10
53272;DHT22;39160;48.580;7.756;2023-06-10T08:39:28;24.70;73.00
53272;DHT22;39160;48.580;7.756;2023-06-10T08:44:29;24.80;72.80
53272;DHT22;39160;48.580;7.756;2023-06-10T08:49:23;24.70;73.10
53272;DHT22;39160;48.580;7.756;2023-06-10T08:54:21;24.80;73.00
53272;DHT22;39160;48.580;7.756;2023-06-10T08:59:14;25.10;72.90
53272;DHT22;39160;48.580;7.756;2023-06-10T09:04:06;25.20;72.70
53272;DHT22;39160;48.580;7.756;2023-06-10T09:08:58;25.50;72.50
53272;DHT22;39160;48.580;7.756;2023-06-10T09:13:49;25.30;72.50
53272;DHT22;39160;48.580;7.756;2023-06-10T09:18:40;25.40;72.50
53272;DHT22;39160;48.580;7.756;2023-06-10T09:23:31;25.50;72.60
53272;DHT22;39160;48.580;7.756;2023-06-10T09:28:21;25.60;72.40
53272;DHT22;39160;48.580;7.756;2023-06-10T09:33:14;25.90;72.00
53272;DHT22;39160;48.580;7.756;2023-06-10T09:38:08;26.00;71.70
53272;DHT22;39160;48.580;7.756;2023-06-10T09:43:00;26.00;71.60
53272;DHT22;39160;48.580;7.756;2023-06-10T09:47:53;26.30;71.20
53272;DHT22;39160;48.580;7.756;2023-06-10T09:52:46;26.30;71.00
53272;DHT22;39160;48.580;7.756;2023-06-10T09:57:37;26.30;71.00
53272;DHT22;39160;48.580;7.756;2023-06-10T10:02:29;26.60;70.60
53272;DHT22;39160;48.580;7.756;2023-06-10T10:07:20;26.50;70.60
53272;DHT22;39160;48.580;7.756;2023-06-10T10:12:13;26.60;70.20
53272;DHT22;39160;48.580;7.756;2023-06-10T10:17:09;26.60;70.10
53272;DHT22;39160;48.580;7.756;2023-06-10T10:22:06;27.00;69.70
53272;DHT22;39160;48.580;7.756;2023-06-10T10:27:01;27.10;69.50
53272;DHT22;39160;48.580;7.756;2023-06-10T10:31:57;27.20;69.30
53272;DHT22;39160;48.580;7.756;2023-06-10T10:36:50;27.20;69.00
53272;DHT22;39160;48.580;7.756;2023-06-10T10:41:42;27.10;69.00
53272;DHT22;39160;48.580;7.756;2023-06-10T10:46:48;27.50;68.60
53272;DHT22;39160;48.580;7.756;2023-06-10T10:51:57;27.40;68.40
53272;DHT22;39160;48.580;7.756;2023-06-10T11:02:03;27.60;68.30
53272;DHT22;39160;48.580;7.756;2023-06-10T11:06:54;27.80;67.40
53272;DHT22;39160;48.580;7.756;2023-06-10T11:11:51;27.80;67.50
53272;DHT22;39160;48.580;7.756;2023-06-10T11:16:42;27.80;67.10
53272;DHT22;39160;48.580;7.756;2023-06-10T11:22:06;28.20;66.90
53272;DHT22;39160;48.580;7.756;2023-06-10T11:27:15;28.20;66.50
53272;DHT22;39160;48.580;7.756;2023-06-10T11:32:09;28.30;66.20
53272;DHT22;39160;48.580;7.756;2023-06-10T11:37:00;28.30;66.10
53272;DHT22;39160;48.580;7.756;2023-06-10T11:41:51;28.40;65.80
53272;DHT22;39160;48.580;7.756;2023-06-10T11:46:42;28.70;65.30
53272;DHT22;39160;48.580;7.756;2023-06-10T11:51:35;28.80;64.90
53272;DHT22;39160;48.580;7.756;2023-06-10T11:56:28;29.10;64.50
53272;DHT22;39160;48.580;7.756;2023-06-10T12:01:23;29.10;64.50
53272;DHT22;39160;48.580;7.756;2023-06-10T12:06:14;29.30;64.20
53272;DHT22;39160;48.580;7.756;2023-06-10T12:11:05;29.60;64.00
53272;DHT22;39160;48.580;7.756;2023-06-10T12:16:06;29.80;63.90
53272;DHT22;39160;48.580;7.756;2023-06-10T12:20:57;29.80;63.70
53272;DHT22;39160;48.580;7.756;2023-06-10T12:25:52;30.50;63.70
53272;DHT22;39160;48.580;7.756;2023-06-10T12:30:43;30.70;63.00
53272;DHT22;39160;48.580;7.756;2023-06-10T12:35:34;31.00;62.90
53272;DHT22;39160;48.580;7.756;2023-06-10T12:40:33;30.80;62.60
53272;DHT22;39160;48.580;7.756;2023-06-10T12:45:31;30.60;62.30
53272;DHT22;39160;48.580;7.756;2023-06-10T12:50:22;30.60;62.10
53272;DHT22;39160;48.580;7.756;2023-06-10T12:55:13;31.60;61.80
53272;DHT22;39160;48.580;7.756;2023-06-10T13:00:04;32.80;61.50
53272;DHT22;39160;48.580;7.756;2023-06-10T13:04:59;32.00;61.00
53272;DHT22;39160;48.580;7.756;2023-06-10T13:09:49;31.30;61.10
53272;DHT22;39160;48.580;7.756;2023-06-10T13:14:40;31.00;61.00
53272;DHT22;39160;48.580;7.756;2023-06-10T13:19:31;31.70;60.60
53272;DHT22;39160;48.580;7.756;2023-06-10T13:24:21;33.90;59.40
53272;DHT22;39160;48.580;7.756;2023-06-10T13:29:12;35.20;58.10
53272;DHT22;39160;48.580;7.756;2023-06-10T13:34:04;35.80;57.70
53272;DHT22;39160;48.580;7.756;2023-06-10T13:38:55;35.80;57.00
53272;DHT22;39160;48.580;7.756;2023-06-10T13:43:46;36.10;56.00
53272;DHT22;39160;48.580;7.756;2023-06-10T13:48:36;33.10;57.20
53272;DHT22;39160;48.580;7.756;2023-06-10T13:53:27;33.90;57.10
53272;DHT22;39160;48.580;7.756;2023-06-10T13:58:18;36.10;55.20
53272;DHT22;39160;48.580;7.756;2023-06-10T14:03:08;36.30;54.00
53272;DHT22;39160;48.580;7.756;2023-06-10T14:08:02;36.60;53.50
53272;DHT22;39160;48.580;7.756;2023-06-10T14:12:53;37.00;53.10
53272;DHT22;39160;48.580;7.756;2023-06-10T14:17:44;36.60;52.40
53272;DHT22;39160;48.580;7.756;2023-06-10T14:22:34;37.00;52.30
53272;DHT22;39160;48.580;7.756;2023-06-10T14:27:25;37.60;51.30
53272;DHT22;39160;48.580;7.756;2023-06-10T14:32:16;37.70;52.10
53272;DHT22;39160;48.580;7.756;2023-06-10T14:37:06;37.70;51.60
53272;DHT22;39160;48.580;7.756;2023-06-10T14:41:57;38.30;51.20
53272;DHT22;39160;48.580;7.756;2023-06-10T14:46:48;38.70;50.70
53272;DHT22;39160;48.580;7.756;2023-06-10T14:51:39;38.60;50.30
53272;DHT22;39160;48.580;7.756;2023-06-10T14:56:30;37.90;50.30
53272;DHT22;39160;48.580;7.756;2023-06-10T15:01:20;37.30;50.60
53272;DHT22;39160;48.580;7.756;2023-06-10T15:06:11;37.40;50.50
53272;DHT22;39160;48.580;7.756;2023-06-10T15:11:01;37.50;50.50
53272;DHT22;39160;48.580;7.756;2023-06-10T15:15:53;37.40;50.50
53272;DHT22;39160;48.580;7.756;2023-06-10T15:20:43;37.40;50.60
53272;DHT22;39160;48.580;7.756;2023-06-10T15:25:34;37.60;50.40
53272;DHT22;39160;48.580;7.756;2023-06-10T15:30:24;38.10;50.00
53272;DHT22;39160;48.580;7.756;2023-06-10T15:35:15;38.20;50.00
53272;DHT22;39160;48.580;7.756;2023-06-10T15:40:06;38.50;49.60
53272;DHT22;39160;48.580;7.756;2023-06-10T15:44:57;38.60;49.30
53272;DHT22;39160;48.580;7.756;2023-06-10T15:49:48;38.40;49.20
53272;DHT22;39160;48.580;7.756;2023-06-10T15:54:38;38.70;48.60
53272;DHT22;39160;48.580;7.756;2023-06-10T15:59:29;38.50;48.90
53272;DHT22;39160;48.580;7.756;2023-06-10T16:04:20;39.10;47.90
53272;DHT22;39160;48.580;7.756;2023-06-10T16:09:10;39.20;47.90
53272;DHT22;39160;48.580;7.756;2023-06-10T16:14:01;39.80;47.30
53272;DHT22;39160;48.580;7.756;2023-06-10T16:18:52;41.20;46.50
53272;DHT22;39160;48.580;7.756;2023-06-10T16:23:43;41.30;46.30
53272;DHT22;39160;48.580;7.756;2023-06-10T16:28:34;41.90;45.40
53272;DHT22;39160;48.580;7.756;2023-06-10T16:33:24;42.10;44.90
53272;DHT22;39160;48.580;7.756;2023-06-10T16:38:15;42.10;44.90
53272;DHT22;39160;48.580;7.756;2023-06-10T16:43:05;43.20;44.20
53272;DHT22;39160;48.580;7.756;2023-06-10T16:47:56;43.10;44.00
53272;DHT22;39160;48.580;7.756;2023-06-10T16:52:47;42.20;44.20
53272;DHT22;39160;48.580;7.756;2023-06-10T16:57:37;42.10;44.20
53272;DHT22;39160;48.580;7.756;2023-06-10T17:02:28;42.10;43.90
53272;DHT22;39160;48.580;7.756;2023-06-10T17:07:18;42.60;43.60
53272;DHT22;39160;48.580;7.756;2023-06-10T17:12:10;43.20;43.30
53272;DHT22;39160;48.580;7.756;2023-06-10T17:17:01;42.80;43.30
53272;DHT22;39160;48.580;7.756;2023-06-10T17:21:52;41.90;43.80
53272;DHT22;39160;48.580;7.756;2023-06-10T17:26:42;41.30;44.10
53272;DHT22;39160;48.580;7.756;2023-06-10T17:31:33;41.30;44.10
53272;DHT22;39160;48.580;7.756;2023-06-10T17:36:24;40.90;44.30
53272;DHT22;39160;48.580;7.756;2023-06-10T17:41:14;39.80;44.70
53272;DHT22;39160;48.580;7.756;2023-06-10T17:46:05;39.10;45.20
53272;DHT22;39160;48.580;7.756;2023-06-10T17:50:55;38.60;45.40
53272;DHT22;39160;48.580;7.756;2023-06-10T17:55:46;38.00;45.90
53272;DHT22;39160;48.580;7.756;2023-06-10T18:00:37;37.60;47.10
53272;DHT22;39160;48.580;7.756;2023-06-10T18:05:27;36.10;47.50
53272;DHT22;39160;48.580;7.756;2023-06-10T18:10:19;34.20;49.00
53272;DHT22;39160;48.580;7.756;2023-06-10T18:15:10;33.50;49.40
53272;DHT22;39160;48.580;7.756;2023-06-10T18:20:02;33.00;49.80
53272;DHT22;39160;48.580;7.756;2023-06-10T18:24:53;32.50;50.40
53272;DHT22;39160;48.580;7.756;2023-06-10T18:29:43;32.30;50.70
53272;DHT22;39160;48.580;7.756;2023-06-10T18:34:34;32.00;51.20
53272;DHT22;39160;48.580;7.756;2023-06-10T18:39:27;31.80;51.40
53272;DHT22;39160;48.580;7.756;2023-06-10T18:44:17;31.80;51.60
53272;DHT22;39160;48.580;7.756;2023-06-10T18:49:08;31.60;51.80
53272;DHT22;39160;48.580;7.756;2023-06-10T18:53:58;31.50;52.20
53272;DHT22;39160;48.580;7.756;2023-06-10T18:58:49;31.30;52.50
53272;DHT22;39160;48.580;7.756;2023-06-10T19:03:40;31.30;52.60
53272;DHT22;39160;48.580;7.756;2023-06-10T19:08:31;31.10;53.10
53272;DHT22;39160;48.580;7.756;2023-06-10T19:13:22;30.90;53.30
53272;DHT22;39160;48.580;7.756;2023-06-10T19:18:13;30.80;53.60
53272;DHT22;39160;48.580;7.756;2023-06-10T19:23:04;30.60;53.90
53272;DHT22;39160;48.580;7.756;2023-06-10T19:27:54;30.50;54.30
53272;DHT22;39160;48.580;7.756;2023-06-10T19:32:45;30.40;54.40
53272;DHT22;39160;48.580;7.756;2023-06-10T19:37:36;30.30;54.80
53272;DHT22;39160;48.580;7.756;2023-06-10T19:42:26;30.20;55.00
53272;DHT22;39160;48.580;7.756;2023-06-10T19:47:17;30.10;55.10
53272;DHT22;39160;48.580;7.756;2023-06-10T19:52:08;30.00;55.30
53272;DHT22;39160;48.580;7.756;2023-06-10T19:56:59;29.80;55.50
53272;DHT22;39160;48.580;7.756;2023-06-10T20:01:50;29.70;55.70
53272;DHT22;39160;48.580;7.756;2023-06-10T20:06:40;29.70;55.90
53272;DHT22;39160;48.580;7.756;2023-06-10T20:11:31;29.70;55.90
53272;DHT22;39160;48.580;7.756;2023-06-10T20:16:22;29.70;56.10
53272;DHT22;39160;48.580;7.756;2023-06-10T20:21:12;29.60;56.40
53272;DHT22;39160;48.580;7.756;2023-06-10T20:26:06;29.50;56.50
53272;DHT22;39160;48.580;7.756;2023-06-10T20:30:56;29.50;56.70
53272;DHT22;39160;48.580;7.756;2023-06-10T20:35:47;29.40;56.70
53272;DHT22;39160;48.580;7.756;2023-06-10T20:40:38;29.40;56.80
53272;DHT22;39160;48.580;7.756;2023-06-10T20:45:29;29.40;57.00
53272;DHT22;39160;48.580;7.756;2023-06-10T20:50:19;29.30;57.40
53272;DHT22;39160;48.580;7.756;2023-06-10T20:55:10;29.20;57.40
53272;DHT22;39160;48.580;7.756;2023-06-10T21:00:01;29.10;57.50
53272;DHT22;39160;48.580;7.756;2023-06-10T21:04:51;29.10;57.70
53272;DHT22;39160;48.580;7.756;2023-06-10T21:09:42;29.00;57.90
53272;DHT22;39160;48.580;7.756;2023-06-10T21:14:33;28.90;58.20
53272;DHT22;39160;48.580;7.756;2023-06-10T21:19:23;28.90;58.30
53272;DHT22;39160;48.580;7.756;2023-06-10T21:24:14;28.80;58.60
53272;DHT22;39160;48.580;7.756;2023-06-10T21:29:05;28.70;58.60
53272;DHT22;39160;48.580;7.756;2023-06-10T21:33:56;28.60;58.90
53272;DHT22;39160;48.580;7.756;2023-06-10T21:38:47;28.60;59.00
53272;DHT22;39160;48.580;7.756;2023-06-10T21:43:38;28.50;59.20
53272;DHT22;39160;48.580;7.756;2023-06-10T21:48:31;28.40;59.30
53272;DHT22;39160;48.580;7.756;2023-06-10T21:53:22;28.40;59.70
53272;DHT22;39160;48.580;7.756;2023-06-10T21:58:13;28.30;59.70
53272;DHT22;39160;48.580;7.756;2023-06-10T22:03:04;28.20;60.00
53272;DHT22;39160;48.580;7.756;2023-06-10T22:07:55;28.10;60.10
53272;DHT22;39160;48.580;7.756;2023-06-10T22:12:46;28.00;60.30
53272;DHT22;39160;48.580;7.756;2023-06-10T22:17:36;27.90;60.30
53272;DHT22;39160;48.580;7.756;2023-06-10T22:22:27;27.90;60.60
53272;DHT22;39160;48.580;7.756;2023-06-10T22:27:17;27.80;60.80
53272;DHT22;39160;48.580;7.756;2023-06-10T22:32:08;27.70;60.80
53272;DHT22;39160;48.580;7.756;2023-06-10T22:36:59;27.70;61.00
53272;DHT22;39160;48.580;7.756;2023-06-10T22:41:50;27.60;61.10
53272;DHT22;39160;48.580;7.756;2023-06-10T22:46:40;27.60;61.30
53272;DHT22;39160;48.580;7.756;2023-06-10T22:51:32;27.50;61.40
53272;DHT22;39160;48.580;7.756;2023-06-10T22:56:23;27.50;61.40
53272;DHT22;39160;48.580;7.756;2023-06-10T23:01:14;27.50;61.50
53272;DHT22;39160;48.580;7.756;2023-06-10T23:06:04;27.50;61.50
53272;DHT22;39160;48.580;7.756;2023-06-10T23:10:55;27.40;61.60
53272;DHT22;39160;48.580;7.756;2023-06-10T23:15:46;27.40;61.70
53272;DHT22;39160;48.580;7.756;2023-06-10T23:20:36;27.40;62.00
53272;DHT22;39160;48.580;7.756;2023-06-10T23:25:28;27.30;62.10
53272;DHT22;39160;48.580;7.756;2023-06-10T23:30:18;27.20;62.30
53272;DHT22;39160;48.580;7.756;2023-06-10T23:35:09;27.10;62.60
53272;DHT22;39160;48.580;7.756;2023-06-10T23:40:01;27.10;63.00
53272;DHT22;39160;48.580;7.756;2023-06-10T23:44:52;27.00;63.00
53272;DHT22;39160;48.580;7.756;2023-06-10T23:49:43;27.00;63.30
53272;DHT22;39160;48.580;7.756;2023-06-10T23:54:33;27.00;63.30
53272;DHT22;39160;48.580;7.756;2023-06-10T23:59:24;27.00;63.20
